Rocherty, Pennsylvania
Current Conditions -  °F | °C
As of 10:22 PM on Thursday 27 Nov 2014 (Local Time) from KMUI Reporting Station
Unknown Precip Unknown Precip  
Wind Chill: 28°   Ceiling: 5500
Heat Index: 34°   Visibility: 10mi
Dew Point: 28°   Wind: 7mph
Humidity: 81%   Direction: 250°WSW
Pressure: 30.11"   Gusts: NA
Location:  40.2957°N, 76.4189°W
Report Text: KMUI 280322Z AUTO 25006KT 10SM UP FEW035 BKN055 OVC085 01/M02 A3011 RMK AO2 UPB0322 $
Loading
Personal Weather Stations






























Interactive Weather Map New forecast layout! Learn more

10-Day Weather Forecast

Advertisements
Track Severe Weather on mobile